Time;durP1;ratioP1;P1;durP2;ratioP2;P2;SDS_P1;SDS_P2;PMS_P1;PMS_P2;Temp;Humidity;BMP_temperature;BMP_pressure;BME280_temperature;BME280_humidity;BME280_pressure;Samples;Min_cycle;Max_cycle;Signal;HPM_P1;HPM_P2
2024/01/05 00:01:11;;;;;;;22.88;5.88;;;;;;;6.98;100.00;99816.94;5105206;28;20383;-81
2024/01/05 00:03:36;;;;;;;23.52;5.70;;;;;;;6.97;100.00;99810.88;5117651;28;20388;-81
2024/01/05 00:06:01;;;;;;;21.08;5.35;;;;;;;6.98;100.00;99803.84;5115616;27;20106;-81
2024/01/05 00:08:30;;;;;;;18.58;5.10;;;;;;;6.99;100.00;99806.34;5118726;27;20087;-81
2024/01/05 00:10:55;;;;;;;22.42;5.97;;;;;;;7.02;100.00;99805.28;5113756;28;20164;-81
2024/01/05 00:13:21;;;;;;;24.05;5.63;;;;;;;7.04;100.00;99803.38;5108481;28;20110;-81
2024/01/05 00:15:47;;;;;;;20.70;5.53;;;;;;;7.05;100.00;99798.03;5103905;28;20026;-81
2024/01/05 00:18:12;;;;;;;25.90;5.47;;;;;;;7.08;100.00;99799.59;5121821;27;20198;-82
2024/01/05 00:20:38;;;;;;;21.10;5.10;;;;;;;7.10;100.00;99797.69;5103874;28;20027;-81
2024/01/05 00:23:03;;;;;;;19.63;4.90;;;;;;;7.12;100.00;99798.41;5124919;27;20027;-81
2024/01/05 00:25:29;;;;;;;21.27;4.97;;;;;;;7.17;100.00;99801.50;5125617;27;20030;-81
2024/01/05 00:27:55;;;;;;;23.25;4.78;;;;;;;7.18;100.00;99797.94;5124645;28;20040;-81
2024/01/05 00:30:20;;;;;;;24.27;5.35;;;;;;;7.21;100.00;99787.25;5102524;28;20433;-81
2024/01/05 00:32:46;;;;;;;22.60;5.10;;;;;;;7.22;100.00;99783.69;5115177;27;20084;-81
2024/01/05 00:35:11;;;;;;;24.92;5.40;;;;;;;7.25;100.00;99783.44;5128836;28;20026;-81
2024/01/05 00:37:37;;;;;;;21.42;4.57;;;;;;;7.27;100.00;99776.31;5122568;28;20076;-81
2024/01/05 00:40:03;;;;;;;23.05;4.93;;;;;;;7.29;100.00;99774.41;5124765;27;20030;-81
2024/01/05 00:42:28;;;;;;;18.45;4.57;;;;;;;7.32;100.00;99763.72;5127981;27;20027;-81
2024/01/05 00:44:54;;;;;;;25.55;4.90;;;;;;;7.32;100.00;99774.16;5121118;27;20560;-81
2024/01/05 00:47:19;;;;;;;18.48;4.80;;;;;;;7.36;100.00;99770.38;5130422;27;20416;-81
2024/01/05 00:49:45;;;;;;;19.88;5.05;;;;;;;7.36;100.00;99765.13;5113549;27;20382;-81
2024/01/05 00:52:10;;;;;;;22.13;4.47;;;;;;;7.38;100.00;99765.00;5112619;27;20033;-82
2024/01/05 00:54:36;;;;;;;19.33;4.13;;;;;;;7.39;100.00;99759.66;5130863;27;20043;-82
2024/01/05 00:57:01;;;;;;;25.40;4.72;;;;;;;7.42;100.00;99762.03;5112614;27;20023;-81
2024/01/05 00:59:26;;;;;;;19.75;4.43;;;;;;;7.42;100.00;99763.81;5129274;27;20027;-81
2024/01/05 01:01:53;;;;;;;19.70;4.38;;;;;;;7.44;100.00;99757.50;5108141;28;20032;-81
2024/01/05 01:04:19;;;;;;;22.48;5.03;;;;;;;7.47;100.00;99759.06;5109216;28;20510;-82
2024/01/05 01:06:44;;;;;;;19.02;4.38;;;;;;;7.48;100.00;99752.84;5092904;28;20031;-82
2024/01/05 01:09:10;;;;;;;17.30;4.50;;;;;;;7.48;100.00;99751.06;5124762;27;20047;-82
2024/01/05 01:11:35;;;;;;;21.38;4.85;;;;;;;7.48;100.00;99750.25;5129375;27;20069;-82
2024/01/05 01:14:00;;;;;;;18.23;4.38;;;;;;;7.48;100.00;99742.38;5130692;27;20475;-82
2024/01/05 01:16:26;;;;;;;20.30;4.57;;;;;;;7.49;100.00;99750.13;5130577;27;20023;-82
2024/01/05 01:18:55;;;;;;;18.40;4.07;;;;;;;7.48;100.00;99743.22;5130076;27;20030;-82
2024/01/05 01:21:20;;;;;;;25.15;4.55;;;;;;;7.48;100.00;99740.59;5123166;27;20024;-82
2024/01/05 01:23:45;;;;;;;20.77;4.68;;;;;;;7.50;100.00;99733.47;5118816;27;20497;-81
2024/01/05 01:26:11;;;;;;;15.20;4.60;;;;;;;7.51;100.00;99727.28;5130086;27;20042;-81
2024/01/05 01:28:36;;;;;;;19.02;4.28;;;;;;;7.50;100.00;99725.63;5122146;27;20050;-82
2024/01/05 01:31:02;;;;;;;19.08;4.10;;;;;;;7.50;100.00;99728.22;5100083;27;20046;-82
2024/01/05 01:33:27;;;;;;;19.65;4.63;;;;;;;7.50;100.00;99709.91;5130086;27;20015;-82
2024/01/05 01:35:53;;;;;;;22.33;4.55;;;;;;;7.50;100.00;99715.16;5131216;27;20448;-82
2024/01/05 01:38:18;;;;;;;21.88;4.50;;;;;;;7.50;100.00;99709.91;5128900;27;20039;-81
2024/01/05 01:40:47;;;;;;;18.92;4.90;;;;;;;7.53;100.00;99714.91;5121170;27;20031;-81
2024/01/05 01:43:21;;;;;;;16.48;4.85;;;;;;;7.53;100.00;99704.44;5112453;27;20056;-81
2024/01/05 01:45:46;;;;;;;19.67;4.68;;;;;;;7.52;100.00;99702.75;5112827;27;20023;-81
2024/01/05 01:48:13;;;;;;;14.38;3.95;;;;;;;7.52;100.00;99692.31;5131751;27;20502;-81
2024/01/05 01:50:38;;;;;;;21.52;4.38;;;;;;;7.52;100.00;99697.53;5128033;27;20106;-82
2024/01/05 01:53:04;;;;;;;17.15;4.18;;;;;;;7.54;100.00;99703.47;5111710;27;20129;-81
2024/01/05 01:55:29;;;;;;;18.83;4.13;;;;;;;7.52;100.00;99694.91;5131490;27;20031;-81
2024/01/05 01:57:56;;;;;;;14.18;4.00;;;;;;;7.51;100.00;99690.63;5130050;27;20075;-81
2024/01/05 02:00:21;;;;;;;18.05;4.22;;;;;;;7.50;100.00;99685.53;5111328;27;20046;-81
2024/01/05 02:02:47;;;;;;;14.73;4.32;;;;;;;7.49;100.00;99676.84;5130771;27;20887;-82
2024/01/05 02:05:13;;;;;;;12.20;3.53;;;;;;;7.47;100.00;99667.44;5117583;27;20034;-81
2024/01/05 02:07:38;;;;;;;13.93;3.72;;;;;;;7.47;100.00;99663.06;5112349;27;20015;-81
2024/01/05 02:10:04;;;;;;;16.60;4.07;;;;;;;7.47;100.00;99659.59;5128549;27;20047;-82
2024/01/05 02:12:29;;;;;;;12.18;3.60;;;;;;;7.45;100.00;99659.72;5124056;27;20399;-82
2024/01/05 02:14:55;;;;;;;16.48;3.85;;;;;;;7.43;100.00;99659.03;5102075;28;20471;-82
2024/01/05 02:17:46;;;;;;;17.08;3.50;;;;;;;7.44;100.00;99650.22;5123679;27;20095;-82
2024/01/05 02:20:12;;;;;;;15.75;4.00;;;;;;;7.38;100.00;99642.03;5104790;28;20042;-82
2024/01/05 02:22:40;;;;;;;16.10;3.65;;;;;;;7.34;100.00;99638.00;5111654;27;20023;-82
2024/01/05 02:25:06;;;;;;;18.65;4.43;;;;;;;7.29;100.00;99638.38;5107336;27;20030;-80
2024/01/05 02:27:32;;;;;;;14.00;3.42;;;;;;;7.28;100.00;99636.69;5105270;27;20045;-81
2024/01/05 02:29:57;;;;;;;13.15;4.10;;;;;;;7.27;100.00;99635.03;5096621;27;20194;-81
2024/01/05 02:32:24;;;;;;;9.90;2.85;;;;;;;7.26;100.00;99622.09;5100944;28;20031;-81
2024/01/05 02:34:49;;;;;;;15.30;3.40;;;;;;;7.23;100.00;99624.00;5102688;27;20474;-82
2024/01/05 02:37:17;;;;;;;10.98;3.08;;;;;;;7.23;100.00;99618.75;5110835;27;20023;-82
2024/01/05 02:39:42;;;;;;;14.68;3.40;;;;;;;7.23;100.00;99617.94;5128372;27;20049;-82
2024/01/05 02:42:08;;;;;;;15.90;3.33;;;;;;;7.22;100.00;99617.09;5114477;27;20538;-82
2024/01/05 02:44:33;;;;;;;15.32;3.65;;;;;;;7.22;100.00;99611.03;5109127;27;20026;-82
2024/01/05 02:46:58;;;;;;;13.52;3.65;;;;;;;7.23;100.00;99602.22;5129339;27;20019;-82
2024/01/05 02:49:24;;;;;;;13.07;2.97;;;;;;;7.22;100.00;99600.56;5127467;27;20498;-82
2024/01/05 02:51:49;;;;;;;12.55;3.30;;;;;;;7.22;100.00;99595.34;5105105;28;20103;-82
2024/01/05 02:54:15;;;;;;;15.00;3.13;;;;;;;7.22;100.00;99593.56;5121741;27;20062;-82
2024/01/05 02:56:40;;;;;;;13.63;3.28;;;;;;;7.24;100.00;99596.06;5107336;27;20465;-81
2024/01/05 02:59:07;;;;;;;10.65;2.90;;;;;;;7.24;100.00;99596.06;5103656;28;20023;-81
2024/01/05 03:01:32;;;;;;;11.15;2.90;;;;;;;7.27;100.00;99587.94;5119865;27;20023;-81
2024/01/05 03:04:00;;;;;;;10.93;2.65;;;;;;;7.28;100.00;99588.78;5108345;28;20084;-81
2024/01/05 03:06:26;;;;;;;9.63;2.78;;;;;;;7.29;100.00;99582.59;5115821;27;20019;-81
2024/01/05 03:08:51;;;;;;;11.63;2.90;;;;;;;7.29;100.00;99586.03;5121416;27;20044;-80
2024/01/05 03:11:16;;;;;;;13.35;2.90;;;;;;;7.30;100.00;99574.63;5128306;27;20475;-81
2024/01/05 03:13:42;;;;;;;10.73;2.47;;;;;;;7.31;100.00;99576.28;5106846;27;20510;-81
2024/01/05 03:16:07;;;;;;;10.05;2.70;;;;;;;7.32;100.00;99574.50;5121089;27;20094;-81
2024/01/05 03:18:33;;;;;;;11.02;2.97;;;;;;;7.32;100.00;99572.72;5120485;27;20052;-81
2024/01/05 03:21:00;;;;;;;8.73;3.00;;;;;;;7.33;100.00;99565.69;5098410;28;20031;-81
2024/01/05 03:23:25;;;;;;;10.20;2.30;;;;;;;7.34;100.00;99562.13;5107491;28;20080;-81
2024/01/05 03:25:52;;;;;;;14.02;2.53;;;;;;;7.33;100.00;99550.81;5108207;27;20020;-81
2024/01/05 03:28:17;;;;;;;10.57;2.78;;;;;;;7.36;100.00;99560.22;5109893;27;20066;-82
2024/01/05 03:30:43;;;;;;;9.93;3.05;;;;;;;7.34;100.00;99547.25;5120448;27;20066;-82
2024/01/05 03:33:09;;;;;;;7.38;2.20;;;;;;;7.37;100.00;99544.38;5121847;27;20026;-81
2024/01/05 03:35:36;;;;;;;10.45;2.65;;;;;;;7.38;100.00;99551.28;5110557;27;20022;-81
2024/01/05 03:38:02;;;;;;;10.35;2.45;;;;;;;7.39;100.00;99537.25;5122200;27;20026;-81
2024/01/05 03:40:27;;;;;;;9.18;2.17;;;;;;;7.39;100.00;99526.78;5127772;27;20031;-81
2024/01/05 03:42:53;;;;;;;10.20;2.55;;;;;;;7.39;100.00;99529.38;5108324;28;20019;-82
2024/01/05 03:45:18;;;;;;;9.65;2.55;;;;;;;7.40;100.00;99531.03;5124788;27;20054;-81
2024/01/05 03:47:43;;;;;;;7.80;2.75;;;;;;;7.42;100.00;99528.31;5089992;28;20426;-81
2024/01/05 03:50:09;;;;;;;7.20;2.17;;;;;;;7.41;100.00;99527.47;5103471;28;20102;-82
2024/01/05 03:52:35;;;;;;;9.45;2.10;;;;;;;7.39;100.00;99518.91;5119727;28;20563;-82
2024/01/05 03:55:01;;;;;;;8.48;2.03;;;;;;;7.39;100.00;99513.69;5094406;28;20059;-82
2024/01/05 03:57:27;;;;;;;8.60;2.05;;;;;;;7.37;100.00;99507.75;5093073;28;20031;-81
2024/01/05 03:59:53;;;;;;;10.30;2.03;;;;;;;7.37;100.00;99505.13;5103088;28;20025;-81
2024/01/05 04:02:18;;;;;;;12.30;2.20;;;;;;;7.37;100.00;99505.13;5127151;28;20088;-81
2024/01/05 04:04:43;;;;;;;7.22;1.98;;;;;;;7.33;100.00;99495.88;5128743;28;20023;-81
2024/01/05 04:07:10;;;;;;;8.60;2.53;;;;;;;7.34;100.00;99489.69;5101647;28;20030;-81
2024/01/05 04:09:36;;;;;;;9.60;2.38;;;;;;;7.34;100.00;99486.25;5111757;28;20038;-82
2024/01/05 04:12:02;;;;;;;7.03;1.75;;;;;;;7.32;100.00;99488.16;5103835;28;20028;-79
2024/01/05 04:14:28;;;;;;;6.70;1.95;;;;;;;7.34;100.00;99473.16;5114924;28;20394;-79
2024/01/05 04:16:53;;;;;;;8.95;2.10;;;;;;;7.34;100.00;99467.94;5114165;27;20102;-79
2024/01/05 04:19:18;;;;;;;10.68;2.15;;;;;;;7.34;100.00;99474.00;5111851;27;20030;-80
2024/01/05 04:21:44;;;;;;;7.57;2.22;;;;;;;7.34;100.00;99467.94;5101538;27;20064;-80
2024/01/05 04:24:10;;;;;;;9.40;2.20;;;;;;;7.36;100.00;99456.38;5103105;27;20065;-80
2024/01/05 04:26:36;;;;;;;9.10;2.30;;;;;;;7.36;100.00;99461.63;5113300;27;20057;-79
2024/01/05 04:29:01;;;;;;;7.80;1.90;;;;;;;7.34;100.00;99449.63;5099287;28;20047;-80
2024/01/05 04:31:27;;;;;;;6.80;2.10;;;;;;;7.35;100.00;99449.50;5093117;27;20081;-80
2024/01/05 04:33:53;;;;;;;9.57;2.00;;;;;;;7.37;100.00;99452.81;5095684;27;20019;-80
2024/01/05 04:36:19;;;;;;;7.28;2.13;;;;;;;7.38;100.00;99444.00;5111278;27;20027;-80
2024/01/05 04:38:44;;;;;;;4.75;2.05;;;;;;;7.39;100.00;99445.66;5111175;27;20057;-80
2024/01/05 04:41:15;;;;;;;7.53;1.90;;;;;;;7.39;100.00;99440.41;5117504;27;20114;-80
2024/01/05 04:43:41;;;;;;;9.63;2.45;;;;;;;7.38;100.00;99435.31;5113211;27;20033;-80
2024/01/05 04:46:08;;;;;;;6.95;2.25;;;;;;;7.34;100.00;99429.50;5112544;27;20019;-80
2024/01/05 04:48:33;;;;;;;8.48;2.03;;;;;;;7.31;100.00;99429.78;5113441;27;20058;-80
2024/01/05 04:51:00;;;;;;;12.25;2.28;;;;;;;7.30;100.00;99425.50;5128870;27;20459;-80
2024/01/05 04:53:26;;;;;;;7.72;2.10;;;;;;;7.30;100.00;99419.44;5116915;27;20058;-80
2024/01/05 04:55:51;;;;;;;5.80;1.75;;;;;;;7.30;100.00;99422.88;5111117;28;20063;-80
2024/01/05 04:58:17;;;;;;;12.40;2.20;;;;;;;7.29;100.00;99416.00;5096729;27;20459;-80
2024/01/05 05:00:42;;;;;;;7.68;2.15;;;;;;;7.32;100.00;99410.50;5120808;27;20024;-81
2024/01/05 05:03:09;;;;;;;7.63;1.80;;;;;;;7.33;100.00;99404.31;5105498;27;20035;-80
2024/01/05 05:05:35;;;;;;;8.32;1.80;;;;;;;7.33;100.00;99409.53;5112491;27;20030;-79
2024/01/05 05:08:01;;;;;;;8.15;2.42;;;;;;;7.35;100.00;99410.25;5125065;27;20027;-80
2024/01/05 05:10:27;;;;;;;7.78;1.88;;;;;;;7.33;100.00;99408.72;5127621;27;20089;-80
2024/01/05 05:12:52;;;;;;;8.52;2.30;;;;;;;7.30;100.00;99395.91;5078388;27;20059;-80
2024/01/05 05:15:18;;;;;;;8.20;1.98;;;;;;;7.26;100.00;99400.56;5128423;27;20395;-79
2024/01/05 05:17:44;;;;;;;5.47;1.83;;;;;;;7.24;100.00;99407.69;5131011;27;20118;-80
2024/01/05 05:20:10;;;;;;;7.80;1.80;;;;;;;7.22;100.00;99401.78;5122946;27;20028;-80
2024/01/05 05:22:35;;;;;;;5.90;1.92;;;;;;;7.23;100.00;99406.03;5097403;27;20358;-79
2024/01/05 05:25:00;;;;;;;6.90;2.05;;;;;;;7.22;100.00;99401.78;5100283;27;20059;-79
2024/01/05 05:27:26;;;;;;;8.20;1.98;;;;;;;7.23;100.00;99398.19;5112374;27;20390;-80
2024/01/05 05:29:51;;;;;;;5.28;1.65;;;;;;;7.25;100.00;99396.28;5099302;27;20093;-79
2024/01/05 05:32:16;;;;;;;7.78;1.58;;;;;;;7.24;100.00;99399.84;5110981;27;20058;-80
2024/01/05 05:34:44;;;;;;;7.20;1.70;;;;;;;7.25;100.00;99395.44;5119326;27;20035;-80
2024/01/05 05:37:09;;;;;;;6.38;1.50;;;;;;;7.27;100.00;99398.78;5116114;27;20023;-80
2024/01/05 05:39:36;;;;;;;10.00;2.33;;;;;;;7.28;100.00;99395.19;5123088;27;20501;-80
2024/01/05 05:42:02;;;;;;;6.90;1.80;;;;;;;7.26;100.00;99392.69;5108459;28;20018;-80
2024/01/05 05:44:28;;;;;;;7.38;1.77;;;;;;;7.31;100.00;99387.91;5110322;28;20476;-80
2024/01/05 05:46:53;;;;;;;5.43;1.52;;;;;;;7.33;100.00;99404.31;5110163;28;20027;-80
2024/01/05 05:49:18;;;;;;;7.68;1.77;;;;;;;7.33;100.00;99393.84;5115188;27;20419;-80
2024/01/05 05:51:45;;;;;;;7.50;1.40;;;;;;;7.39;100.00;99393.31;5108426;28;20019;-80
2024/01/05 05:54:10;;;;;;;2.50;1.05;;;;;;;7.45;100.00;99392.81;5109893;28;20032;-80
2024/01/05 05:56:35;;;;;;;4.82;1.30;;;;;;;7.47;100.00;99396.13;5109218;28;20051;-80
2024/01/05 05:59:01;;;;;;;4.32;1.00;;;;;;;7.48;100.00;99400.41;5109730;28;20368;-80
2024/01/05 06:01:26;;;;;;;3.20;0.93;;;;;;;7.48;100.00;99391.72;5114475;27;20404;-79
2024/01/05 06:03:51;;;;;;;2.78;0.70;;;;;;;7.52;100.00;99419.28;5129595;27;20041;-80
2024/01/05 06:06:21;;;;;;;2.28;0.70;;;;;;;7.50;98.57;99416.78;5097590;28;20050;-80
2024/01/05 06:08:51;;;;;;;0.98;0.47;;;;;;;7.48;99.46;99425.72;5115332;27;20403;-80
2024/01/05 06:11:18;;;;;;;1.15;0.50;;;;;;;7.43;97.77;99423.50;5114482;27;20551;-79
2024/01/05 06:13:44;;;;;;;1.15;0.40;;;;;;;7.40;98.33;99421.16;5122239;27;20501;-80
2024/01/05 06:16:11;;;;;;;1.88;0.40;;;;;;;7.39;95.83;99434.38;5090739;28;20030;-79
2024/01/05 06:18:36;;;;;;;0.82;0.40;;;;;;;7.36;96.94;99414.53;5118597;27;20035;-79
2024/01/05 06:21:02;;;;;;;0.85;0.40;;;;;;;7.32;97.52;99426.19;5127583;27;20022;-80
2024/01/05 06:23:27;;;;;;;1.50;0.50;;;;;;;7.31;96.41;99414.06;5093622;28;20391;-79
2024/01/05 06:25:53;;;;;;;1.38;0.45;;;;;;;7.31;95.57;99405.41;5095302;28;20027;-79
2024/01/05 06:28:19;;;;;;;1.98;0.40;;;;;;;7.29;97.50;99412.53;5109607;27;20042;-79
2024/01/05 06:30:44;;;;;;;0.93;0.50;;;;;;;7.27;97.43;99417.91;5104475;27;20035;-79
2024/01/05 06:33:10;;;;;;;1.33;0.50;;;;;;;7.25;98.19;99411.97;5110484;27;20030;-80
2024/01/05 06:35:35;;;;;;;1.20;0.40;;;;;;;7.27;97.43;99414.47;5125267;27;20035;-80
2024/01/05 06:38:00;;;;;;;2.05;0.57;;;;;;;7.27;96.26;99409.22;5109140;28;20036;-80
2024/01/05 06:40:26;;;;;;;0.90;0.40;;;;;;;7.26;97.43;99418.88;5117593;27;20031;-80
2024/01/05 06:42:51;;;;;;;2.17;0.57;;;;;;;7.25;98.11;99416.38;5109705;28;20031;-79
2024/01/05 06:45:17;;;;;;;1.83;0.45;;;;;;;7.20;99.28;99421.97;5101828;27;20829;-79
2024/01/05 06:47:42;;;;;;;1.02;0.50;;;;;;;7.20;99.79;99420.22;5110310;27;20062;-80
2024/01/05 06:50:08;;;;;;;1.25;0.50;;;;;;;7.19;99.75;99418.53;5128956;27;20023;-80
2024/01/05 06:52:34;;;;;;;1.05;0.40;;;;;;;7.18;99.86;99422.09;5125490;27;20027;-79
2024/01/05 06:55:03;;;;;;;1.50;0.50;;;;;;;7.18;99.81;99421.25;5124118;27;20506;-80
2024/01/05 06:57:29;;;;;;;1.85;0.50;;;;;;;7.18;100.00;99422.09;5109212;27;20058;-80
2024/01/05 06:59:54;;;;;;;1.15;0.60;;;;;;;7.17;100.00;99414.38;5108009;28;20035;-80
2024/01/05 07:02:20;;;;;;;0.60;0.60;;;;;;;7.17;100.00;99417.81;5125569;27;20019;-81
2024/01/05 07:04:45;;;;;;;2.25;0.47;;;;;;;7.16;100.00;99417.94;5123733;27;20024;-80
2024/01/05 07:07:11;;;;;;;0.80;0.50;;;;;;;7.17;98.44;99417.00;5106710;28;20023;-80
2024/01/05 07:09:36;;;;;;;1.23;0.40;;;;;;;7.17;98.73;99417.00;5118404;27;20491;-80
2024/01/05 07:12:02;;;;;;;2.05;0.60;;;;;;;7.18;98.52;99421.25;5127719;27;20030;-80
2024/01/05 07:14:28;;;;;;;1.13;0.32;;;;;;;7.18;97.45;99416.84;5108894;27;20073;-80
2024/01/05 07:16:58;;;;;;;1.63;0.40;;;;;;;7.21;97.98;99427.09;5127049;27;20407;-80
2024/01/05 07:19:24;;;;;;;2.05;0.38;;;;;;;7.19;98.53;99417.69;5099586;28;20035;-80
2024/01/05 07:21:49;;;;;;;1.38;0.40;;;;;;;7.16;98.58;99417.94;5122595;27;20048;-79
2024/01/05 07:24:15;;;;;;;0.80;0.35;;;;;;;7.15;99.17;99427.56;5105713;27;20129;-80
2024/01/05 07:26:42;;;;;;;1.30;0.47;;;;;;;7.14;98.93;99428.53;5090332;28;20096;-80
2024/01/05 07:29:07;;;;;;;0.60;0.40;;;;;;;7.11;99.91;99418.31;5111660;27;20031;-80
2024/01/05 07:31:32;;;;;;;2.13;0.43;;;;;;;7.09;100.00;99416.78;5120406;27;20487;-79
2024/01/05 07:33:58;;;;;;;1.30;0.50;;;;;;;7.06;100.00;99422.28;5098441;27;20171;-80
2024/01/05 07:36:23;;;;;;;1.80;0.50;;;;;;;7.01;100.00;99425.28;5127588;27;20106;-78
2024/01/05 07:38:49;;;;;;;1.15;0.50;;;;;;;6.97;100.00;99428.28;5112049;28;20501;-79
2024/01/05 07:41:18;;;;;;;2.08;0.50;;;;;;;6.89;100.00;99429.72;5130050;27;20023;-80
2024/01/05 07:43:43;;;;;;;1.50;0.50;;;;;;;6.85;100.00;99443.19;5108607;28;20391;-79
2024/01/05 07:46:09;;;;;;;1.10;0.47;;;;;;;6.77;100.00;99433.31;5129076;28;20015;-79
2024/01/05 07:48:40;;;;;;;2.15;0.40;;;;;;;6.70;100.00;99445.22;5121830;28;20822;-80
2024/01/05 07:51:06;;;;;;;0.80;0.40;;;;;;;6.63;100.00;99440.63;5113618;27;20028;-80
2024/01/05 07:53:31;;;;;;;1.58;0.50;;;;;;;6.56;100.00;99448.13;5113417;27;20039;-80
2024/01/05 07:56:01;;;;;;;1.42;0.50;;;;;;;6.51;100.00;99445.06;5132346;27;20093;-82
2024/01/05 07:58:26;;;;;;;2.72;0.60;;;;;;;6.47;100.00;99448.88;5132107;27;20057;-82
2024/01/05 08:00:51;;;;;;;1.63;0.63;;;;;;;6.41;100.00;99441.53;5130488;27;20482;-82
2024/01/05 08:03:17;;;;;;;2.00;0.70;;;;;;;6.36;100.00;99444.47;5130318;27;20490;-82
2024/01/05 08:05:43;;;;;;;1.63;0.60;;;;;;;6.32;100.00;99442.22;5112229;27;20110;-82
2024/01/05 08:08:08;;;;;;;1.55;0.60;;;;;;;6.28;100.00;99445.06;5131128;27;20019;-82
2024/01/05 08:10:34;;;;;;;2.53;0.80;;;;;;;6.25;100.00;99441.88;5111174;27;20375;-82
2024/01/05 08:13:01;;;;;;;1.13;0.52;;;;;;;6.23;100.00;99444.63;5111853;27;20030;-81
2024/01/05 08:15:26;;;;;;;0.70;0.50;;;;;;;6.23;100.00;99441.16;5130869;27;20054;-81
2024/01/05 08:17:52;;;;;;;2.25;0.65;;;;;;;6.21;100.00;99450.91;5128102;27;20027;-81
2024/01/05 08:20:17;;;;;;;1.00;0.50;;;;;;;6.19;100.00;99447.59;5111457;27;20035;-81
2024/01/05 08:22:42;;;;;;;2.38;0.60;;;;;;;6.18;100.00;99448.53;5129062;27;20464;-81
2024/01/05 08:25:08;;;;;;;2.05;0.57;;;;;;;6.16;100.00;99451.28;5129540;27;20067;-81
2024/01/05 08:27:33;;;;;;;1.27;0.60;;;;;;;6.16;100.00;99448.66;5130470;27;20027;-81
2024/01/05 08:29:59;;;;;;;3.00;0.70;;;;;;;6.13;100.00;99451.50;5111496;27;20026;-81
2024/01/05 08:32:24;;;;;;;2.38;0.70;;;;;;;6.09;100.00;99452.69;5126621;27;20023;-82
2024/01/05 08:34:49;;;;;;;1.40;0.68;;;;;;;6.08;100.00;99460.66;5110117;27;20027;-81
2024/01/05 08:37:18;;;;;;;2.08;0.70;;;;;;;6.06;100.00;99462.56;5109169;27;20027;-81
2024/01/05 08:39:43;;;;;;;2.13;0.68;;;;;;;6.01;100.00;99462.91;5127107;27;20023;-81
2024/01/05 08:42:08;;;;;;;1.02;0.55;;;;;;;5.96;100.00;99452.81;5130016;27;20352;-82
2024/01/05 08:44:38;;;;;;;1.13;0.75;;;;;;;5.93;100.00;99470.47;5106251;27;20066;-81
2024/01/05 08:47:03;;;;;;;1.98;0.80;;;;;;;5.89;100.00;99466.41;5125741;27;20027;-81
2024/01/05 08:49:29;;;;;;;1.67;0.70;;;;;;;5.84;100.00;99468.56;5130519;27;20434;-81
2024/01/05 08:51:55;;;;;;;1.98;0.70;;;;;;;5.76;100.00;99473.53;5110599;27;20027;-81
2024/01/05 08:54:20;;;;;;;1.83;0.50;;;;;;;5.70;100.00;99476.59;5125881;27;20035;-82
2024/01/05 08:56:45;;;;;;;0.63;0.57;;;;;;;5.62;100.00;99469.38;5127969;27;20047;-81
2024/01/05 08:59:11;;;;;;;1.63;0.50;;;;;;;5.53;100.00;99476.09;5106649;27;20019;-81
2024/01/05 09:01:37;;;;;;;1.13;0.50;;;;;;;5.45;100.00;99486.25;5111977;28;20054;-82
2024/01/05 09:04:03;;;;;;;0.88;0.47;;;;;;;5.35;100.00;99493.13;5113161;27;20026;-81
2024/01/05 09:06:31;;;;;;;1.23;0.50;;;;;;;5.28;100.00;99484.09;5112882;27;20023;-82
2024/01/05 09:09:00;;;;;;;1.15;0.50;;;;;;;5.24;100.00;99480.06;5119216;27;20039;-81
2024/01/05 09:11:26;;;;;;;1.88;0.60;;;;;;;5.18;100.00;99489.13;5130942;27;20056;-81
2024/01/05 09:13:51;;;;;;;0.65;0.47;;;;;;;5.12;100.00;99486.16;5115838;27;20419;-82
2024/01/05 09:16:16;;;;;;;1.10;0.50;;;;;;;5.10;100.00;99488.03;5096021;28;20877;-82
2024/01/05 09:18:42;;;;;;;0.88;0.50;;;;;;;5.08;100.00;99492.53;5093577;28;20399;-82
2024/01/05 09:21:08;;;;;;;1.20;0.57;;;;;;;5.06;100.00;99477.00;5092465;28;20020;-81
2024/01/05 09:23:34;;;;;;;1.58;0.70;;;;;;;5.07;100.00;99481.28;5093159;28;20039;-81
2024/01/05 09:25:59;;;;;;;1.00;0.68;;;;;;;5.10;100.00;99477.59;5111119;28;20028;-81
2024/01/05 09:28:25;;;;;;;2.28;0.63;;;;;;;5.09;100.00;99491.59;5092411;28;20180;-81
2024/01/05 09:30:50;;;;;;;3.15;0.88;;;;;;;5.08;100.00;99489.91;5101322;28;20031;-81
2024/01/05 09:33:19;;;;;;;1.27;0.75;;;;;;;5.09;100.00;99492.41;5091385;28;20035;-79
2024/01/05 09:35:44;;;;;;;1.27;0.80;;;;;;;5.11;100.00;99484.47;5094980;28;20026;-80
2024/01/05 09:38:10;;;;;;;2.42;0.80;;;;;;;5.14;100.00;99494.69;5092439;27;20475;-80
2024/01/05 09:40:35;;;;;;;2.67;0.90;;;;;;;5.13;100.00;99498.22;5120422;27;20441;-81
2024/01/05 09:43:07;;;;;;;1.20;0.80;;;;;;;5.15;100.00;99502.38;5113962;27;20570;-82
2024/01/05 09:45:33;;;;;;;3.58;0.93;;;;;;;5.18;100.00;99506.53;5120190;27;20425;-82
2024/01/05 09:48:02;;;;;;;2.38;1.05;;;;;;;5.20;100.00;99509.88;5095156;27;20654;-82
2024/01/05 09:50:33;;;;;;;1.27;1.00;;;;;;;5.21;100.00;99501.13;5128068;27;20019;-82
2024/01/05 09:53:01;;;;;;;2.53;0.95;;;;;;;5.23;100.00;99509.69;5121345;27;20062;-82
2024/01/05 09:55:26;;;;;;;3.65;1.10;;;;;;;5.27;100.00;99503.28;5116515;27;20407;-82
2024/01/05 09:58:05;;;;;;;2.92;1.30;;;;;;;5.30;100.00;99521.31;5128724;27;20110;-81
2024/01/05 10:00:32;;;;;;;1.50;0.88;;;;;;;5.32;100.00;99509.81;5115165;27;20092;-81
2024/01/05 10:03:07;;;;;;;3.47;1.50;;;;;;;5.38;100.00;99512.91;5113398;27;20025;-81
2024/01/05 10:05:33;;;;;;;2.72;1.35;;;;;;;5.39;100.00;99515.41;5114905;27;20505;-81
2024/01/05 10:08:01;;;;;;;2.17;1.30;;;;;;;5.44;100.00;99510.69;5125473;27;20027;-81
2024/01/05 10:11:01;;;;;;;3.78;1.40;;;;;;;5.53;100.00;99515.22;5110824;27;20048;-83
2024/01/05 10:13:30;;;;;;;3.45;1.25;;;;;;;5.58;100.00;99510.47;5045793;27;20049;-82
2024/01/05 10:16:00;;;;;;;2.60;1.58;;;;;;;5.65;100.00;99514.31;5116377;27;20027;-82
2024/01/05 10:18:28;;;;;;;2.30;1.30;;;;;;;5.70;100.00;99508.75;5114093;27;20038;-82
2024/01/05 10:20:55;;;;;;;2.53;1.20;;;;;;;5.74;100.00;99506.75;5124633;27;20071;-82
2024/01/05 10:23:21;;;;;;;2.47;1.50;;;;;;;5.80;100.00;99503.66;5129515;27;20041;-82
2024/01/05 10:25:47;;;;;;;1.77;1.20;;;;;;;5.86;100.00;99497.97;5130778;27;20023;-82
2024/01/05 10:28:32;;;;;;;2.63;1.27;;;;;;;5.94;100.00;99506.06;5125913;27;20045;-82
2024/01/05 10:31:13;;;;;;;3.28;1.42;;;;;;;5.95;100.00;99507.75;5129813;27;20463;-82
2024/01/05 10:33:52;;;;;;;2.15;1.17;;;;;;;5.98;100.00;99507.50;5113961;27;20027;-82
2024/01/05 10:36:21;;;;;;;2.30;1.10;;;;;;;5.97;100.00;99511.88;5112788;27;20857;-82
2024/01/05 10:38:48;;;;;;;2.45;1.50;;;;;;;5.97;100.00;99508.44;5108464;27;20181;-82
2024/01/05 10:41:15;;;;;;;1.92;1.20;;;;;;;5.97;100.00;99505.84;5129429;27;20031;-80
2024/01/05 10:43:41;;;;;;;1.40;1.10;;;;;;;5.98;100.00;99512.72;5111056;27;20118;-80
2024/01/05 10:46:12;;;;;;;2.33;1.10;;;;;;;5.99;100.00;99519.59;5123551;27;20106;-81
2024/01/05 10:48:39;;;;;;;1.67;1.13;;;;;;;6.02;100.00;99511.56;5110569;27;20023;-81
2024/01/05 10:51:06;;;;;;;2.90;1.17;;;;;;;6.03;100.00;99512.41;5128815;27;20027;-81
2024/01/05 10:53:32;;;;;;;2.95;1.10;;;;;;;6.04;100.00;99507.06;5104886;27;20031;-81
2024/01/05 10:56:01;;;;;;;2.85;1.20;;;;;;;6.06;100.00;99520.81;5100687;27;20110;-81
2024/01/05 10:58:26;;;;;;;1.98;1.00;;;;;;;6.08;100.00;99510.25;5120904;27;20038;-81
2024/01/05 11:00:56;;;;;;;1.17;1.00;;;;;;;6.07;100.00;99517.25;5100935;27;20393;-80
2024/01/05 11:03:24;;;;;;;3.00;1.15;;;;;;;6.07;100.00;99514.66;5108116;27;20118;-80
2024/01/05 11:05:49;;;;;;;1.98;1.00;;;;;;;6.06;100.00;99520.81;5124998;27;20033;-81
2024/01/05 11:08:39;;;;;;;1.60;1.00;;;;;;;6.08;100.00;99516.31;5125620;27;20038;-81
2024/01/05 11:11:27;;;;;;;2.22;1.08;;;;;;;6.07;100.00;99532.94;5124685;27;20542;-81
2024/01/05 11:14:31;;;;;;;2.55;1.10;;;;;;;6.07;100.00;99522.50;5127566;27;20495;-81
2024/01/05 11:17:23;;;;;;;1.92;1.15;;;;;;;6.05;100.00;99519.16;5125970;27;20035;-79
2024/01/05 11:20:07;;;;;;;4.40;1.10;;;;;;;6.06;100.00;99520.81;5105259;27;20026;-82
2024/01/05 11:22:36;;;;;;;1.83;0.98;;;;;;;6.06;100.00;99520.81;5128846;27;20011;-81
2024/01/05 11:25:03;;;;;;;4.47;1.50;;;;;;;6.07;100.00;99517.25;5110075;28;20027;-82
2024/01/05 11:27:33;;;;;;;2.95;1.48;;;;;;;6.06;100.00;99515.59;5108540;27;20101;-82
2024/01/05 11:30:00;;;;;;;2.70;1.40;;;;;;;6.06;100.00;99520.81;5100122;28;20043;-82